WetterOnline ( https://www.wetteronline.de )

Wetter aktuell Putgarten

Aktuelles Wetter: Kap Arkona/Rügen (42m)

6-stündlich | Neueste Meldungen
Ortszeit Temperatur Wetter
Di, 11.05. 8:00 11.2° C wolkig
Di, 11.05. 2:00 11.8° C wolkig
Mo, 10.05. 20:00 14.4° C wolkig
Mo, 10.05. 14:00 19.2° C leicht bewölkt
Mo, 10.05. 8:00 15.9° C leicht bewölkt
Mo, 10.05. 2:00 14.4° C wolkig
So, 09.05. 20:00 16.0° C wolkig
So, 09.05. 14:00 17.7° C leicht bewölkt
Ortszeit Temperatur Wetter
Di, 11.05. 12:00 11.3° C leicht bewölkt
Di, 11.05. 11:50 11.3° C leicht bewölkt
Di, 11.05. 11:40 12.1° C leicht bewölkt
Di, 11.05. 11:30 13.2° C wolkig
Di, 11.05. 11:20 13.2° C wolkig
Di, 11.05. 11:10 11.6° C bedeckt
Di, 11.05. 11:00 11.0° C wolkig
Di, 11.05. 10:30 11.5° C bewölkt
Di, 11.05. 10:00 11.5° C wolkig
Ortszeit Relative Feuchte Sichtweite
Di, 11.05. 8:00 87% 21 km
Di, 11.05. 2:00 85% 27 km
Mo, 10.05. 20:00 76% 35 km
Mo, 10.05. 14:00 54% 60 km
Mo, 10.05. 8:00 62% 50 km
Mo, 10.05. 2:00 62% 55 km
So, 09.05. 20:00 61% 55 km
So, 09.05. 14:00 61% >70 km
Ortszeit Relative Feuchte Sichtweite
Di, 11.05. 12:00 84% -
Di, 11.05. 11:50 84% -
Di, 11.05. 11:40 82% -
Di, 11.05. 11:30 81% -
Di, 11.05. 11:20 81% -
Di, 11.05. 11:10 85% -
Di, 11.05. 11:00 86% 28 km
Di, 11.05. 10:30 85% 29 km
Di, 11.05. 10:00 87% 27 km
Ortszeit Niederschlagsmenge Niederschlagsart
Di, 11.05. 8:00 0.0 l/m2 in 12 Std. -
Di, 11.05. 2:00 0.0 l/m2 in 6 Std. -
Mo, 10.05. 20:00 0.0 l/m2 in 12 Std. -
Mo, 10.05. 14:00 0.0 l/m2 in 6 Std. -
Mo, 10.05. 8:00 0.0 l/m2 in 12 Std. -
Mo, 10.05. 2:00 0.0 l/m2 in 6 Std. -
So, 09.05. 20:00 0.0 l/m2 in 12 Std. -
So, 09.05. 14:00 0.0 l/m2 in 6 Std. -
Ortszeit Niederschlagsmenge Niederschlagsart
Di, 11.05. 12:00 0.0 l/m2 in 1 Std. -
Di, 11.05. 11:50 keine Meldung -
Di, 11.05. 11:40 keine Meldung -
Di, 11.05. 11:30 0.0 l/m2 in 1 Std. -
Di, 11.05. 11:20 keine Meldung -
Di, 11.05. 11:10 keine Meldung -
Di, 11.05. 11:00 0.0 l/m2 in 1 Std. -
Di, 11.05. 10:30 0.0 l/m2 in 1 Std. -
Di, 11.05. 10:00 0.0 l/m2 in 1 Std. -
Ortszeit Stärke Spitze Richtung
km/h Bft. km/h Grad Sektor
Di, 11.05. 8:00 25 4 40 340° N
Di, 11.05. 2:00 19 3 50 330° NW
Mo, 10.05. 20:00 31 5 52 290° W
Mo, 10.05. 14:00 25 4 50 160° S
Mo, 10.05. 8:00 43 6 54 190° S
Mo, 10.05. 2:00 37 5 52 180° S
So, 09.05. 20:00 18 3 40 160° S
So, 09.05. 14:00 28 4 48 180° S
Ortszeit Stärke Spitze Richtung
km/h Bft. km/h Grad Sektor
Di, 11.05. 12:00 31 5 39 10° N
Di, 11.05. 11:50 31 5 - 10° N
Di, 11.05. 11:40 29 5 - 360° N
Di, 11.05. 11:30 17 3 30 340° N
Di, 11.05. 11:20 17 3 - 340° N
Di, 11.05. 11:10 22 4 - 360° N
Di, 11.05. 11:00 26 4 37 360° N
Di, 11.05. 10:30 24 4 37 340° N
Di, 11.05. 10:00 30 5 39 360° N
Ortszeit Untergrenze Bedeckung Gattung
total tief tief mittel hoch
Di, 11.05. 8:00 3900 m 8/8 8/8 - - -
Di, 11.05. 2:00 4500 m 7/8 2/8 - - -
Mo, 10.05. 20:00 3900 m 7/8 4/8 - - -
Mo, 10.05. 14:00 7500 m 6/8 0/8 - - -
Mo, 10.05. 8:00 7200 m 6/8 0/8 - - -
Mo, 10.05. 2:00 9000 m 8/8 0/8 - - -
So, 09.05. 20:00 7200 m 8/8 0/8 - - -
So, 09.05. 14:00 8100 m 7/8 0/8 - - -
Ortszeit Bedeckungsgrad in Achtel und Wolkenuntergrenze
Di, 11.05. 12:00 3(5400m)
Di, 11.05. 11:50 3(5400m)
Di, 11.05. 11:40 1(4500m) 4(5400m)
Di, 11.05. 11:30 5(4800m)
Di, 11.05. 11:20 5(4800m)
Di, 11.05. 11:10 8(4800m)
Di, 11.05. 11:00 5(4800m) 6(7800m)
Di, 11.05. 10:30 1(4800m) 7(6000m)
Di, 11.05. 10:00 6(4800m) 7(6300m)
Ortszeit Luftdruck NN (hPa) Tendenz (hPa in 3 Std.)
Di, 11.05. 8:00 1010 - 0,5
Di, 11.05. 2:00 1011 + 0,4
Mo, 10.05. 20:00 1008 + 2,1
Mo, 10.05. 14:00 1006 0,0
Mo, 10.05. 8:00 1005 + 0,2
Mo, 10.05. 2:00 1005 - 1,4
So, 09.05. 20:00 1006 - 0,9
So, 09.05. 14:00 1008 - 0,6
Ortszeit Luftdruck NN (hPa) Tendenz (hPa in 3 Std.)
Di, 11.05. 12:00 1008 - 0,8
Di, 11.05. 11:50 1008 keine Meldung
Di, 11.05. 11:40 1008 keine Meldung
Di, 11.05. 11:30 1009 - 0,6
Di, 11.05. 11:20 1009 keine Meldung
Di, 11.05. 11:10 1009 keine Meldung
Di, 11.05. 11:00 1008 - 1,5
Di, 11.05. 10:30 1008 - 1,2
Di, 11.05. 10:00 1008 - 1,3
Ortszeit Schneehöhe (cm)
Di, 11.05. 8:00 0
Di, 11.05. 2:00 0
Mo, 10.05. 20:00 0
Mo, 10.05. 14:00 0
Mo, 10.05. 8:00 0
Mo, 10.05. 2:00 0
So, 09.05. 20:00 0
So, 09.05. 14:00 0
Ortszeit Schneehöhe (cm)
Di, 11.05. 12:00 0
Di, 11.05. 11:50 0
Di, 11.05. 11:40 0
Di, 11.05. 11:30 0
Di, 11.05. 11:20 0
Di, 11.05. 11:10 0
Di, 11.05. 11:00 0
Di, 11.05. 10:30 0
Di, 11.05. 10:00 0
Link zu dieser Seite / Seite empfehlen

Das Wetter in ...